K7JKM Weather Reports


time (UTC)temp
F
wind
direction
speed
knots
gust
knots
rain 1hr
in
rain 24hr
in
rain mn
in
humidity
%
barometer
mb
20220629033015 62 313 0.9 4.3 0.00 0.00 0.00 57 1020.7
20220629031521 65 321 1.7 5.2 0.00 0.00 0.00 53 1020.6
20220629030023 67 316 0.0 4.3 0.00 0.00 0.00 51 1020.6
20220629024525 68 217 0.0 4.3 0.00 0.00 0.00 50 1020.5
20220629023035 68 321 1.7 6.1 0.00 0.00 0.00 49 1020.6
20220629021536 69 20 0.0 5.2 0.00 0.00 0.00 50 1020.5
20220629020037 70 8 2.6 6.1 0.00 0.00 0.00 47 1020.4
20220629014541 71 310 0.0 5.2 0.00 0.00 0.00 46 1020.3
20220629013045 71 227 0.0 6.1 0.00 0.00 0.00 44 1020.2
20220629011549 72 195 0.9 4.3 0.00 0.00 0.00 41 1020.3
20220629010053 72 318 0.9 5.2 0.00 0.00 0.00 41 1020.3
20220629004536 74 206 0.9 5.2 0.00 0.00 0.00 41 1020.4
20220629003039 73 210 0.0 4.3 0.00 0.00 0.00 41 1020.5
20220629001544 73 192 0.9 6.1 0.00 0.00 0.00 41 1020.7
20220629000048 73 304 0.9 6.1 0.00 0.00 0.00 39 1020.7
20220628234552 73 185 0.0 5.2 0.00 0.00 0.00 42 1020.7
20220628233059 73 202 0.9 6.1 0.00 0.00 0.00 43 1020.8
20220628231611 73 216 0.9 7.0 0.00 0.00 0.00 44 1020.7
20220628230102 73 200 2.6 6.1 0.00 0.00 0.00 42 1020.8
20220628224503 73 226 1.7 6.1 0.00 0.00 0.00 44 1021.0
20220628223014 73 216 0.9 5.2 0.00 0.00 0.00 44 1021.0
20220628221510 72 106 1.7 8.7 0.00 0.00 0.00 45 1021.1
20220628220015 73 180 1.7 7.0 0.00 0.00 0.00 46 1021.1
20220628214518 74 212 0.9 6.1 0.00 0.00 0.00 44 1021.1
20220628213030 73 210 1.7 5.2 0.00 0.00 0.00 43 1021.1
20220628211533 73 46 1.7 7.8 0.00 0.00 0.00 45 1021.0
20220628210030 71 18 1.7 7.0 0.00 0.00 0.00 47 1020.9
20220628204537 69 162 0.9 5.2 0.00 0.00 0.00 50 1020.9
20220628203140 69 260 0.9 5.2 0.00 0.00 0.00 49 1021.0
20220628201531 69 205 1.7 7.0 0.00 0.00 0.00 47 1020.8
20220628200033 69 150 0.9 9.6 0.00 0.00 0.00 49 1020.7
20220628194536 68 200 0.0 7.8 0.00 0.00 0.00 50 1020.7
20220628193041 68 241 1.7 6.1 0.00 0.00 0.00 48 1020.8
20220628191545 68 153 0.0 5.2 0.00 0.00 0.00 50 1020.8
20220628190047 67 137 0.9 6.1 0.00 0.00 0.00 49 1020.7
20220628184532 67 145 0.9 6.1 0.00 0.00 0.00 49 1020.6
20220628183037 67 127 0.9 8.7 0.00 0.00 0.00 49 1020.6
20220628181537 66 220 0.9 6.1 0.00 0.00 0.00 51 1020.5
20220628180041 66 169 1.7 7.8 0.00 0.00 0.00 52 1020.4
20220628174545 65 139 0.9 6.1 0.00 0.00 0.00 52 1020.4
20220628173053 64 178 1.7 7.8 0.00 0.00 0.00 53 1020.4
20220628171553 64 255 2.6 7.0 0.00 0.00 0.00 53 1020.4
20220628170045 63 170 0.9 7.8 0.00 0.00 0.00 55 1020.4
20220628164549 62 155 1.7 7.0 0.00 0.00 0.00 56 1020.4
20220628161519 61 294 1.7 5.2 0.00 0.00 0.00 57 1020.4
20220628160022 61 210 1.7 5.2 0.00 0.00 0.00 58 1020.5
20220628154526 60 186 1.7 7.0 0.00 0.00 0.00 58 1020.5
20220628153040 59 136 0.9 4.3 0.00 0.00 0.00 59 1020.6
20220628151533 59 195 0.0 5.2 0.00 0.00 0.00 60 1020.7
20220628150039 58 224 0.9 4.3 0.00 0.00 0.00 60 1020.7
20220628144542 58 210 0.0 4.3 0.00 0.00 0.00 61 1020.7
20220628143045 58 134 0.9 4.3 0.00 0.00 0.00 61 1020.5
20220628141541 57 193 0.0 5.2 0.00 0.00 0.00 62 1020.3
20220628140102 57 214 0.0 5.2 0.00 0.00 0.00 62 1020.1
20220628134547 56 221 0.9 3.5 0.00 0.00 0.00 64 1020.0
20220628133050 55 134 0.0 3.5 0.00 0.00 0.00 65 1020.0
20220628131554 55 181 0.0 2.6 0.00 0.00 0.00 66 1019.9
20220628130108 54 197 0.0 4.3 0.00 0.00 0.00 67 1019.8
20220628124543 53 132 0.0 4.3 0.00 0.00 0.00 68 1019.7
20220628123047 53 130 0.0 1.7 0.00 0.00 0.00 68 1019.6
20220628121547 53 137 0.0 1.7 0.00 0.00 0.00 68 1019.5
20220628120058 53 133 0.0 5.2 0.00 0.00 0.00 69 1019.5
20220628114554 53 135 0.0 0.9 0.00 0.00 0.00 68 1019.2
20220628113057 54 131 0.0 0.9 0.00 0.00 0.00 68 1019.0
20220628111601 54 164 0.0 0.9 0.00 0.00 0.00 68 1018.9
20220628110105 54 176 0.0 3.5 0.00 0.00 0.00 68 1018.8
20220628104502 54 231 0.0 4.3 0.00 0.00 0.00 67 1018.8
20220628103007 55 150 0.0 1.7 0.00 0.00 0.00 66 1018.8
20220628101511 55 204 0.0 2.6 0.00 0.00 0.00 65 1018.7
20220628100011 55 158 0.0 5.2 0.00 0.00 0.00 64 1018.5
20220628094516 55 235 0.0 3.5 0.00 0.00 0.00 64 1018.6
20220628093023 55 118 0.9 4.3 0.00 0.00 0.00 64 1018.6
20220628091521 55 232 0.0 2.6 0.00 0.00 0.00 66 1018.5
20220628090030 55 172 0.0 2.6 0.00 0.00 0.00 66 1018.6
20220628084527 55 214 0.0 1.7 0.00 0.00 0.00 66 1018.5
20220628083030 55 223 0.0 1.7 0.00 0.00 0.00 67 1018.3
20220628081535 54 235 0.0 0.0 0.00 0.00 0.00 68 1018.3
20220628080039 55 231 0.0 0.9 0.00 0.00 0.00 68 1018.2
20220628074542 55 203 0.0 1.7 0.00 0.00 0.00 67 1018.1
20220628073046 56 235 0.0 0.9 0.00 0.00 0.00 66 1018.0
20220628071554 56 178 0.0 1.7 0.00 0.00 0.00 65 1017.9
20220628070052 57 210 0.0 2.6 0.00 0.00 0.00 64 1017.7
20220628064637 57 342 0.0 4.3 0.00 0.00 0.00 63 1017.5
20220628063003 57 181 0.0 2.6 0.00 0.00 0.00 63 1017.5
20220628061506 58 305 0.0 3.5 0.00 0.00 0.00 63 1017.4
20220628060010 59 79 0.0 5.2 0.00 0.00 0.00 61 1017.1
20220628054514 59 249 0.9 5.2 0.00 0.00 0.00 59 1016.9
20220628053018 61 302 0.9 6.1 0.00 0.00 0.00 58 1016.9
20220628051523 62 250 1.7 5.2 0.00 0.00 0.00 55 1016.5
20220628050026 63 310 0.9 5.2 0.00 0.00 0.00 54 1016.1
20220628044529 64 233 0.9 5.2 0.00 0.00 0.00 52 1015.8
20220628043034 65 359 2.6 6.1 0.00 0.00 0.00 50 1015.6
20220628041538 67 314 2.6 8.7 0.00 0.00 0.00 47 1015.5
20220628040041 70 307 1.7 7.0 0.00 0.00 0.00 42 1015.2
20220628034546 74 253 0.0 2.6 0.00 0.00 0.00 36 1014.9